Time;durP1;ratioP1;P1;durP2;ratioP2;P2;SDS_P1;SDS_P2;PMS_P1;PMS_P2;Temp;Humidity;BMP_temperature;BMP_pressure;BME280_temperature;BME280_humidity;BME280_pressure;Samples;Min_cycle;Max_cycle;Signal;HPM_P1;HPM_P2
2021/04/01 00:00:24;;;;;;;;;;;;;;;;;;5065367;28;20325;-67
2021/04/01 00:02:50;;;;;;;;;;;;;;;;;;5055230;28;19929;-67
2021/04/01 00:05:17;;;;;;;;;;;;;;;;;;5056619;28;19933;-67
2021/04/01 00:07:43;;;;;;;;;;;;;;;;;;5051571;28;19972;-67
2021/04/01 00:10:10;;;;;;;;;;;;;;;;;;5057430;28;20038;-67
2021/04/01 00:12:36;;;;;;;;;;;;;;;;;;5069287;28;19924;-67
2021/04/01 00:15:03;;;;;;;;;;;;;;;;;;5052635;28;19947;-68
2021/04/01 00:17:29;;;;;;;;;;;;;;;;;;5059832;28;20435;-67
2021/04/01 00:19:56;;;;;;;;;;;;;;;;;;5058076;28;19931;-67
2021/04/01 00:22:22;;;;;;;;;;;;;;;;;;5055923;28;19967;-67
2021/04/01 00:24:49;;;;;;;;;;;;;;;;;;5064210;28;19925;-67
2021/04/01 00:27:15;;;;;;;;;;;;;;;;;;5060257;28;19925;-66
2021/04/01 00:29:42;;;;;;;;;;;;;;;;;;5065910;28;19931;-67
2021/04/01 00:32:08;;;;;;;;;;;;;;;;;;5061773;28;19925;-67
2021/04/01 00:34:35;;;;;;;;;;;;;;;;;;5059982;28;19931;-67
2021/04/01 00:37:01;;;;;;;;;;;;;;;;;;5056747;28;19932;-67
2021/04/01 00:39:28;;;;;;;;;;;;;;;;;;5067786;28;19975;-66
2021/04/01 00:41:54;;;;;;;;;;;;;;;;;;5063509;28;20002;-67
2021/04/01 00:44:21;;;;;;;;;;;;;;;;;;5066361;28;20388;-66
2021/04/01 00:46:48;;;;;;;;;;;;;;;;;;5058515;28;20019;-67
2021/04/01 00:49:14;;;;;;;;;;;;;;;;;;5055571;28;19933;-66
2021/04/01 00:51:41;;;;;;;;;;;;;;;;;;5059920;28;19967;-67
2021/04/01 00:54:07;;;;;;;;;;;;;;;;;;5068031;28;19929;-66
2021/04/01 00:56:34;;;;;;;;;;;;;;;;;;5058677;28;19930;-67
2021/04/01 00:59:00;;;;;;;;;;;;;;;;;;5053973;28;20008;-67
2021/04/01 01:01:42;;;;;;;;;;;;;;;;;;5064391;28;19929;-67
2021/04/01 01:04:09;;;;;;;;;;;;;;;;;;5052162;28;19940;-66
2021/04/01 01:06:36;;;;;;;;;;;;;;;;;;5057207;28;20378;-67
2021/04/01 01:09:02;;;;;;;;;;;;;;;;;;5063701;28;20454;-67
2021/04/01 01:11:29;;;;;;;;;;;;;;;;;;5061496;28;19933;-67
2021/04/01 01:13:56;;;;;;;;;;;;;;;;;;5061835;28;19932;-70
2021/04/01 01:16:22;;;;;;;;;;;;;;;;;;5061612;28;19968;-68
2021/04/01 01:18:49;;;;;;;;;;;;;;;;;;5063787;28;20027;-67
2021/04/01 01:21:15;;;;;;;;;;;;;;;;;;5060991;28;19924;-67
2021/04/01 01:23:42;;;;;;;;;;;;;;;;;;5055613;28;19924;-67
2021/04/01 01:26:08;;;;;;;;;;;;;;;;;;5056703;28;20370;-66
2021/04/01 01:28:35;;;;;;;;;;;;;;;;;;5051554;28;19925;-67
2021/04/01 01:31:01;;;;;;;;;;;;;;;;;;5057429;28;20019;-67
2021/04/01 01:33:28;;;;;;;;;;;;;;;;;;5064634;28;20015;-67
2021/04/01 01:35:54;;;;;;;;;;;;;;;;;;5060893;28;19925;-66
2021/04/01 01:38:21;;;;;;;;;;;;;;;;;;5057346;28;19931;-67
2021/04/01 01:40:47;;;;;;;;;;;;;;;;;;5063759;28;20351;-66
2021/04/01 01:43:14;;;;;;;;;;;;;;;;;;5061213;28;20022;-66
2021/04/01 01:45:40;;;;;;;;;;;;;;;;;;5056155;28;20000;-67
2021/04/01 01:48:07;;;;;;;;;;;;;;;;;;5062944;28;19936;-67
2021/04/01 01:50:33;;;;;;;;;;;;;;;;;;5060524;28;19933;-67
2021/04/01 01:53:00;;;;;;;;;;;;;;;;;;5060428;28;20315;-67
2021/04/01 01:55:26;;;;;;;;;;;;;;;;;;5053729;28;19925;-67
2021/04/01 01:57:53;;;;;;;;;;;;;;;;;;5061715;28;19992;-68
2021/04/01 02:00:20;;;;;;;;;;;;;;;;;;5056274;28;19972;-67
2021/04/01 02:02:46;;;;;;;;;;;;;;;;;;5062585;28;20412;-67
2021/04/01 02:05:13;;;;;;;;;;;;;;;;;;5061836;28;19971;-66
2021/04/01 02:07:39;;;;;;;;;;;;;;;;;;5055910;28;20367;-66
2021/04/01 02:10:06;;;;;;;;;;;;;;;;;;5054867;28;19924;-67
2021/04/01 02:12:32;;;;;;;;;;;;;;;;;;5058080;28;19933;-66
2021/04/01 02:14:59;;;;;;;;;;;;;;;;;;5058493;28;19946;-66
2021/04/01 02:17:25;;;;;;;;;;;;;;;;;;5062289;28;19990;-66
2021/04/01 02:19:52;;;;;;;;;;;;;;;;;;5064384;28;20320;-66
2021/04/01 02:22:18;;;;;;;;;;;;;;;;;;5057309;28;20078;-66
2021/04/01 02:24:45;;;;;;;;;;;;;;;;;;5061416;28;19970;-65
2021/04/01 02:27:11;;;;;;;;;;;;;;;;;;5052123;28;19936;-67
2021/04/01 02:29:38;;;;;;;;;;;;;;;;;;5053430;28;19960;-67
2021/04/01 02:32:05;;;;;;;;;;;;;;;;;;5067714;28;19925;-67
2021/04/01 02:34:31;;;;;;;;;;;;;;;;;;5068524;28;20233;-67
2021/04/01 02:36:58;;;;;;;;;;;;;;;;;;5058465;28;19925;-67
2021/04/01 02:39:24;;;;;;;;;;;;;;;;;;5057616;28;20337;-67
2021/04/01 02:41:51;;;;;;;;;;;;;;;;;;5057884;28;20026;-67
2021/04/01 02:44:17;;;;;;;;;;;;;;;;;;5065926;28;19929;-67
2021/04/01 02:46:44;;;;;;;;;;;;;;;;;;5057886;28;19925;-68
2021/04/01 02:49:10;;;;;;;;;;;;;;;;;;5054207;28;19924;-67
2021/04/01 02:51:37;;;;;;;;;;;;;;;;;;5055824;28;19929;-67
2021/04/01 02:54:03;;;;;;;;;;;;;;;;;;5062201;28;19933;-67
2021/04/01 02:56:30;;;;;;;;;;;;;;;;;;5055795;28;19928;-67
2021/04/01 02:58:56;;;;;;;;;;;;;;;;;;5066655;28;20023;-67
2021/04/01 03:01:23;;;;;;;;;;;;;;;;;;5065710;28;19938;-68
2021/04/01 03:03:53;;;;;;;;;;;;;;;;;;5054200;28;20338;-66
2021/04/01 03:06:21;;;;;;;;;;;;;;;;;;5063438;28;19978;-67
2021/04/01 03:08:48;;;;;;;;;;;;;;;;;;5056275;28;20345;-67
2021/04/01 03:11:14;;;;;;;;;;;;;;;;;;5055491;28;19982;-67
2021/04/01 03:13:40;;;;;;;;;;;;;;;;;;5055455;28;19925;-67
2021/04/01 03:16:07;;;;;;;;;;;;;;;;;;5061248;28;19925;-68
2021/04/01 03:18:34;;;;;;;;;;;;;;;;;;5053751;28;20353;-67
2021/04/01 03:21:00;;;;;;;;;;;;;;;;;;5054969;28;19933;-68
2021/04/01 03:23:29;;;;;;;;;;;;;;;;;;5054521;28;20324;-67
2021/04/01 03:25:56;;;;;;;;;;;;;;;;;;5066527;28;20007;-68
2021/04/01 03:28:22;;;;;;;;;;;;;;;;;;5056775;28;19932;-67
2021/04/01 03:31:00;;;;;;;;;;;;;;;;;;5055958;28;19931;-67
2021/04/01 03:33:27;;;;;;;;;;;;;;;;;;5060648;28;20011;-67
2021/04/01 03:35:53;;;;;;;;;;;;;;;;;;5059947;28;19925;-68
2021/04/01 03:38:20;;;;;;;;;;;;;;;;;;5063942;28;20023;-67
2021/04/01 03:40:47;;;;;;;;;;;;;;;;;;5063088;28;20425;-66
2021/04/01 03:43:13;;;;;;;;;;;;;;;;;;5066238;28;19932;-66
2021/04/01 03:45:40;;;;;;;;;;;;;;;;;;5065375;28;20240;-66
2021/04/01 03:48:06;;;;;;;;;;;;;;;;;;5064010;28;20157;-66
2021/04/01 03:50:33;;;;;;;;;;;;;;;;;;5071407;28;19928;-66
2021/04/01 03:52:59;;;;;;;;;;;;;;;;;;5067039;28;20012;-66
2021/04/01 03:55:36;;;;;;;;;;;;;;;;;;5055386;28;19925;-66
2021/04/01 03:58:11;;;;;;;;;;;;;;;;;;5056740;28;20020;-67
2021/04/01 04:00:38;;;;;;;;;;;;;;;;;;5065431;28;20022;-67
2021/04/01 04:03:12;;;;;;;;;;;;;;;;;;5058260;28;19956;-67
2021/04/01 04:05:44;;;;;;;;;;;;;;;;;;5081420;22;20071;-66
2021/04/01 04:08:36;;;;;;;;;;;;;;;;;;5045123;28;20336;-67
2021/04/01 04:11:15;;;;;;;;;;;;;;;;;;5039725;28;19921;-66
2021/04/01 04:13:47;;;;;;;;;;;;;;;;;;5047904;28;19929;-67
2021/04/01 04:16:14;;;;;;;;;;;;;;;;;;5035027;28;20296;-67
2021/04/01 04:18:41;;;;;;;;;;;;;;;;;;5021244;28;19926;-67
2021/04/01 04:21:07;;;;;;;;;;;;;;;;;;5025419;28;20396;-67
2021/04/01 04:23:35;;;;;;;;;;;;;;;;;;5026835;28;19939;-67
2021/04/01 04:26:01;;;;;;;;;;;;;;;;;;5030341;28;21074;-67
2021/04/01 04:28:32;;;;;;;;;;;;;;;;;;5028720;28;20013;-66
2021/04/01 04:30:58;;;;;;;;;;;;;;;;;;5026430;28;19925;-66
2021/04/01 04:33:25;;;;;;;;;;;;;;;;;;5023587;28;19925;-67
2021/04/01 04:35:51;;;;;;;;;;;;;;;;;;5030729;28;20417;-67
2021/04/01 04:38:18;;;;;;;;;;;;;;;;;;5022727;28;19976;-67
2021/04/01 04:40:44;;;;;;;;;;;;;;;;;;5024893;28;19932;-67
2021/04/01 04:43:11;;;;;;;;;;;;;;;;;;5027303;28;20385;-66
2021/04/01 04:45:37;;;;;;;;;;;;;;;;;;5025296;28;19932;-67
2021/04/01 04:48:04;;;;;;;;;;;;;;;;;;5024085;28;20371;-66
2021/04/01 04:50:30;;;;;;;;;;;;;;;;;;5029795;28;19929;-67
2021/04/01 04:52:57;;;;;;;;;;;;;;;;;;5030229;28;19925;-67
2021/04/01 04:55:24;;;;;;;;;;;;;;;;;;5025213;28;19925;-67
2021/04/01 04:58:03;;;;;;;;;;;;;;;;;;5021441;28;19925;-66
2021/04/01 05:05:58;;;;;;;;;;;;;;;;;;5023541;28;19919;-66
2021/04/01 05:08:25;;;;;;;;;;;;;;;;;;5024032;28;19971;-67
2021/04/01 05:10:51;;;;;;;;;;;;;;;;;;5024881;28;19951;-67
2021/04/01 05:13:18;;;;;;;;;;;;;;;;;;5021604;28;20036;-67
2021/04/01 05:15:47;;;;;;;;;;;;;;;;;;5021359;28;19925;-65
2021/04/01 05:18:15;;;;;;;;;;;;;;;;;;5019897;28;19925;-67
2021/04/01 05:20:42;;;;;;;;;;;;;;;;;;5029395;28;19991;-65
2021/04/01 05:23:16;;;;;;;;;;;;;;;;;;5023389;28;20419;-66
2021/04/01 05:25:43;;;;;;;;;;;;;;;;;;5019206;28;20385;-65
2021/04/01 05:28:19;;;;;;;;;;;;;;;;;;5015978;28;19968;-65
2021/04/01 05:30:46;;;;;;;;;;;;;;;;;;5024229;28;19925;-65
2021/04/01 05:33:14;;;;;;;;;;;;;;;;;;5024153;28;19925;-65
2021/04/01 05:35:41;;;;;;;;;;;;;;;;;;5026835;28;19929;-64
2021/04/01 05:38:07;;;;;;;;;;;;;;;;;;5017978;28;19926;-64
2021/04/01 05:40:34;;;;;;;;;;;;;;;;;;5020533;28;20021;-64
2021/04/01 05:43:00;;;;;;;;;;;;;;;;;;5025182;28;19929;-64
2021/04/01 05:45:34;;;;;;;;;;;;;;;;;;5024886;28;19978;-64
2021/04/01 05:48:02;;;;;;;;;;;;;;;;;;5021410;28;19925;-64
2021/04/01 05:50:41;;;;;;;;;;;;;;;;;;5018041;28;19932;-64
2021/04/01 06:01:25;;;;;;;;;;;;;;;;;;5017715;28;19964;-64
2021/04/01 06:03:55;;;;;;;;;;;;;;;;;;5017963;28;19931;-64
2021/04/01 06:06:25;;;;;;;;;;;;;;;;;;5024720;28;19921;-64
2021/04/01 06:08:52;;;;;;;;;;;;;;;;;;5017151;28;19940;-65
2021/04/01 06:11:19;;;;;;;;;;;;;;;;;;5024032;28;20586;-65
2021/04/01 06:13:53;;;;;;;;;;;;;;;;;;5027701;28;20015;-65
2021/04/01 06:16:19;;;;;;;;;;;;;;;;;;5027883;28;19932;-64
2021/04/01 06:18:46;;;;;;;;;;;;;;;;;;5019924;28;19933;-64
2021/04/01 06:21:12;;;;;;;;;;;;;;;;;;5019441;28;19925;-64
2021/04/01 06:23:39;;;;;;;;;;;;;;;;;;5027024;28;20226;-64
2021/04/01 06:26:05;;;;;;;;;;;;;;;;;;5025709;28;19925;-64
2021/04/01 06:28:32;;;;;;;;;;;;;;;;;;5025113;28;19932;-64
2021/04/01 06:30:59;;;;;;;;;;;;;;;;;;5016338;28;19939;-65
2021/04/01 06:33:27;;;;;;;;;;;;;;;;;;5015036;28;20021;-65
2021/04/01 06:35:57;;;;;;;;;;;;;;;;;;5018322;28;19968;-64
2021/04/01 06:38:27;;;;;;;;;;;;;;;;;;5025246;28;20403;-65
2021/04/01 06:40:54;;;;;;;;;;;;;;;;;;5016034;28;19973;-64
2021/04/01 06:43:22;;;;;;;;;;;;;;;;;;5020911;28;19929;-64
2021/04/01 06:45:49;;;;;;;;;;;;;;;;;;5021939;28;19932;-64
2021/04/01 06:48:18;;;;;;;;;;;;;;;;;;5014691;28;20039;-65
2021/04/01 06:50:45;;;;;;;;;;;;;;;;;;5024362;28;19933;-65
2021/04/01 06:53:16;;;;;;;;;;;;;;;;;;5027575;28;19929;-65
2021/04/01 06:55:47;;;;;;;;;;;;;;;;;;5023460;28;19932;-65
2021/04/01 06:58:21;;;;;;;;;;;;;;;;;;5017960;28;20281;-65
2021/04/01 07:00:56;;;;;;;;;;;;;;;;;;5020390;28;20404;-65
2021/04/01 07:03:26;;;;;;;;;;;;;;;;;;5028102;28;20023;-65
2021/04/01 07:05:54;;;;;;;;;;;;;;;;;;5027414;28;19929;-65
2021/04/01 07:08:24;;;;;;;;;;;;;;;;;;5023295;28;20020;-65
2021/04/01 07:10:59;;;;;;;;;;;;;;;;;;5022036;28;19930;-64
2021/04/01 07:13:27;;;;;;;;;;;;;;;;;;5021253;28;19933;-65
2021/04/01 07:15:56;;;;;;;;;;;;;;;;;;5023940;28;19983;-65
2021/04/01 07:18:33;;;;;;;;;;;;;;;;;;5026385;28;19925;-65
2021/04/01 07:21:24;;;;;;;;;;;;;;;;;;5028420;28;19925;-63
2021/04/01 07:24:22;;;;;;;;;;;;;;;;;;5025202;28;19929;-64
2021/04/01 07:32:38;;;;;;;;;;;;;;;;;;5027066;28;19924;-65
2021/04/01 07:35:21;;;;;;;;;;;;;;;;;;5025133;28;20389;-64
2021/04/01 07:48:57;;;;;;;;;;;;;;;;;;5017037;28;19930;-63
2021/04/01 07:51:33;;;;;;;;;;;;;;;;;;5026423;28;19980;-64
2021/04/01 07:54:00;;;;;;;;;;;;;;;;;;5031522;28;20290;-65
2021/04/01 07:56:30;;;;;;;;;;;;;;;;;;5030671;28;20310;-64
2021/04/01 07:59:18;;;;;;;;;;;;;;;;;;5028408;28;20024;-64
2021/04/01 08:01:52;;;;;;;;;;;;;;;;;;5020448;28;19932;-65
2021/04/01 08:04:18;;;;;;;;;;;;;;;;;;5025421;28;20352;-64
2021/04/01 08:06:45;;;;;;;;;;;;;;;;;;5027973;28;19929;-66
2021/04/01 08:09:12;;;;;;;;;;;;;;;;;;5029097;28;19983;-64
2021/04/01 08:11:42;;;;;;;;;;;;;;;;;;5028013;28;20008;-63
2021/04/01 08:14:11;;;;;;;;;;;;;;;;;;5030554;28;20093;-65
2021/04/01 08:16:38;;;;;;;;;;;;;;;;;;5027980;28;19925;-64
2021/04/01 08:19:06;;;;;;;;;;;;;;;;;;5028710;28;20145;-63
2021/04/01 08:21:33;;;;;;;;;;;;;;;;;;5022284;28;20584;-63
2021/04/01 08:24:01;;;;;;;;;;;;;;;;;;5031186;28;19972;-63
2021/04/01 08:26:38;;;;;;;;;;;;;;;;;;5020793;28;19925;-64
2021/04/01 08:29:19;;;;;;;;;;;;;;;;;;5026427;28;20286;-63
2021/04/01 08:32:02;;;;;;;;;;;;;;;;;;5026953;28;20400;-63
2021/04/01 08:34:35;;;;;;;;;;;;;;;;;;5029892;28;20032;-64
2021/04/01 08:37:02;;;;;;;;;;;;;;;;;;5024231;28;20348;-65
2021/04/01 08:39:28;;;;;;;;;;;;;;;;;;5023460;28;19925;-64
2021/04/01 08:41:55;;;;;;;;;;;;;;;;;;5024980;28;19998;-64
2021/04/01 08:44:21;;;;;;;;;;;;;;;;;;5024208;28;19930;-64
2021/04/01 08:46:48;;;;;;;;;;;;;;;;;;5028959;28;19961;-65
2021/04/01 08:49:14;;;;;;;;;;;;;;;;;;5025424;28;19925;-64
2021/04/01 08:51:41;;;;;;;;;;;;;;;;;;5023418;28;19925;-64
2021/04/01 08:54:09;;;;;;;;;;;;;;;;;;5026367;28;19925;-64
2021/04/01 08:56:35;;;;;;;;;;;;;;;;;;5025901;28;20181;-64
2021/04/01 08:59:03;;;;;;;;;;;;;;;;;;5024019;28;19932;-64
2021/04/01 09:01:30;;;;;;;;;;;;;;;;;;5022154;28;19937;-64
2021/04/01 09:03:56;;;;;;;;;;;;;;;;;;5024389;28;20325;-64
2021/04/01 09:06:24;;;;;;;;;;;;;;;;;;5023731;28;19971;-64
2021/04/01 09:08:50;;;;;;;;;;;;;;;;;;5024843;28;20406;-64
2021/04/01 09:11:17;;;;;;;;;;;;;;;;;;5021676;28;19972;-64
2021/04/01 09:13:46;;;;;;;;;;;;;;;;;;5023339;28;19929;-64
2021/04/01 09:16:14;;;;;;;;;;;;;;;;;;5021033;28;19925;-64
2021/04/01 09:18:41;;;;;;;;;;;;;;;;;;5024361;28;19933;-66
2021/04/01 09:21:08;;;;;;;;;;;;;;;;;;5021531;28;19933;-65
2021/04/01 09:23:34;;;;;;;;;;;;;;;;;;5024298;28;19925;-65
2021/04/01 09:26:01;;;;;;;;;;;;;;;;;;5022652;28;19931;-65
2021/04/01 09:28:28;;;;;;;;;;;;;;;;;;5021134;28;19925;-65
2021/04/01 09:30:54;;;;;;;;;;;;;;;;;;5026506;28;19925;-65
2021/04/01 09:33:25;;;;;;;;;;;;;;;;;;5024776;28;20599;-65
2021/04/01 09:35:52;;;;;;;;;;;;;;;;;;5022977;28;20012;-65
2021/04/01 09:38:18;;;;;;;;;;;;;;;;;;5024633;28;19936;-65
2021/04/01 09:40:45;;;;;;;;;;;;;;;;;;5024637;28;19925;-66
2021/04/01 09:43:12;;;;;;;;;;;;;;;;;;5022321;28;19982;-66
2021/04/01 09:45:38;;;;;;;;;;;;;;;;;;5022430;28;20482;-65
2021/04/01 09:48:05;;;;;;;;;;;;;;;;;;5023940;28;20361;-65
2021/04/01 09:50:31;;;;;;;;;;;;;;;;;;5021444;28;20059;-65
2021/04/01 09:52:58;;;;;;;;;;;;;;;;;;5024409;28;19931;-65
2021/04/01 09:55:24;;;;;;;;;;;;;;;;;;5022036;28;19979;-65
2021/04/01 09:57:52;;;;;;;;;;;;;;;;;;5024281;28;19933;-65
2021/04/01 10:00:22;;;;;;;;;;;;;;;;;;5023938;28;19948;-65
2021/04/01 10:02:50;;;;;;;;;;;;;;;;;;5022537;28;20006;-65
2021/04/01 10:05:16;;;;;;;;;;;;;;;;;;5023863;28;19969;-65
2021/04/01 10:07:43;;;;;;;;;;;;;;;;;;5056854;22;19964;-65
2021/04/01 10:10:09;;;;;;;;;;;;;;;;;;5044557;28;19936;-68
2021/04/01 10:12:36;;;;;;;;;;;;;;;;;;5045756;28;20400;-66
2021/04/01 10:15:08;;;;;;;;;;;;;;;;;;5053212;28;20020;-68
2021/04/01 10:17:35;;;;;;;;;;;;;;;;;;5052110;28;19932;-66
2021/04/01 10:20:01;;;;;;;;;;;;;;;;;;5049007;28;19925;-68
2021/04/01 10:22:28;;;;;;;;;;;;;;;;;;5042287;28;19929;-66
2021/04/01 10:24:54;;;;;;;;;;;;;;;;;;5040291;28;19968;-67
2021/04/01 10:27:25;;;;;;;;;;;;;;;;;;5043415;28;19960;-67
2021/04/01 10:29:59;;;;;;;;;;;;;;;;;;5040687;28;19933;-67
2021/04/01 10:32:25;;;;;;;;;;;;;;;;;;5042179;28;20060;-68
2021/04/01 10:34:52;;;;;;;;;;;;;;;;;;5044457;28;20340;-65
2021/04/01 10:37:19;;;;;;;;;;;;;;;;;;5043575;28;19933;-66
2021/04/01 10:39:45;;;;;;;;;;;;;;;;;;5038745;28;20103;-65
2021/04/01 10:42:12;;;;;;;;;;;;;;;;;;5041378;28;20064;-67
2021/04/01 10:44:38;;;;;;;;;;;;;;;;;;5044560;28;19972;-67
2021/04/01 10:47:05;;;;;;;;;;;;;;;;;;5041003;28;19947;-65
2021/04/01 10:49:31;;;;;;;;;;;;;;;;;;5041316;28;19960;-66
2021/04/01 10:51:58;;;;;;;;;;;;;;;;;;5045522;28;19925;-65
2021/04/01 10:54:24;;;;;;;;;;;;;;;;;;5047003;28;19929;-66
2021/04/01 10:56:52;;;;;;;;;;;;;;;;;;5044875;28;19964;-65
2021/04/01 10:59:18;;;;;;;;;;;;;;;;;;5043068;28;19925;-64
2021/04/01 11:01:45;;;;;;;;;;;;;;;;;;5048171;28;20286;-66
2021/04/01 11:04:11;;;;;;;;;;;;;;;;;;5046066;28;20316;-68
2021/04/01 11:06:38;;;;;;;;;;;;;;;;;;5045966;28;20439;-66
2021/04/01 11:09:04;;;;;;;;;;;;;;;;;;5044171;28;19948;-66
2021/04/01 11:11:31;;;;;;;;;;;;;;;;;;5045229;28;20053;-67
2021/04/01 11:13:58;;;;;;;;;;;;;;;;;;5045545;28;20027;-65
2021/04/01 11:16:24;;;;;;;;;;;;;;;;;;5043276;28;20031;-66
2021/04/01 11:18:51;;;;;;;;;;;;;;;;;;5045329;28;20036;-65
2021/04/01 11:21:17;;;;;;;;;;;;;;;;;;5044468;28;19925;-65
2021/04/01 11:23:43;;;;;;;;;;;;;;;;;;5046306;28;20040;-65
2021/04/01 11:26:10;;;;;;;;;;;;;;;;;;5047042;28;19994;-64
2021/04/01 11:28:37;;;;;;;;;;;;;;;;;;5044480;28;19928;-67
2021/04/01 11:31:05;;;;;;;;;;;;;;;;;;5047895;28;19925;-68
2021/04/01 11:33:31;;;;;;;;;;;;;;;;;;5046111;28;19924;-67
2021/04/01 11:36:07;;;;;;;;;;;;;;;;;;5045528;28;20456;-67
2021/04/01 11:38:37;;;;;;;;;;;;;;;;;;5043540;28;19925;-66
2021/04/01 11:41:04;;;;;;;;;;;;;;;;;;5037751;28;20139;-65
2021/04/01 11:43:30;;;;;;;;;;;;;;;;;;5045948;28;19971;-66
2021/04/01 11:45:57;;;;;;;;;;;;;;;;;;5045859;28;20404;-66
2021/04/01 11:48:23;;;;;;;;;;;;;;;;;;5045306;28;19925;-66
2021/04/01 11:50:50;;;;;;;;;;;;;;;;;;5041422;28;19929;-65
2021/04/01 11:53:16;;;;;;;;;;;;;;;;;;5046551;28;19932;-68
2021/04/01 11:55:43;;;;;;;;;;;;;;;;;;5046336;28;19948;-68
2021/04/01 11:58:09;;;;;;;;;;;;;;;;;;5045822;28;19966;-71
2021/04/01 12:00:36;;;;;;;;;;;;;;;;;;5040234;28;20343;-67
2021/04/01 12:03:05;;;;;;;;;;;;;;;;;;5045191;28;20384;-67
2021/04/01 12:05:32;;;;;;;;;;;;;;;;;;5043569;28;19925;-66
2021/04/01 12:07:59;;;;;;;;;;;;;;;;;;5044025;28;19929;-66
2021/04/01 12:10:25;;;;;;;;;;;;;;;;;;5045959;28;20369;-66
2021/04/01 12:12:52;;;;;;;;;;;;;;;;;;5046067;28;19991;-65
2021/04/01 12:15:19;;;;;;;;;;;;;;;;;;5045120;28;20024;-67
2021/04/01 12:17:45;;;;;;;;;;;;;;;;;;5044747;28;20008;-65
2021/04/01 12:20:12;;;;;;;;;;;;;;;;;;5044406;28;19931;-67
2021/04/01 12:22:38;;;;;;;;;;;;;;;;;;5042665;28;20304;-64
2021/04/01 12:25:05;;;;;;;;;;;;;;;;;;5046460;28;19935;-65
2021/04/01 12:27:31;;;;;;;;;;;;;;;;;;5046454;28;19964;-65
2021/04/01 12:29:58;;;;;;;;;;;;;;;;;;5044736;28;19925;-65
2021/04/01 12:32:24;;;;;;;;;;;;;;;;;;5046538;28;19951;-65
2021/04/01 12:34:51;;;;;;;;;;;;;;;;;;5047402;28;19955;-66
2021/04/01 12:37:17;;;;;;;;;;;;;;;;;;5046305;28;19932;-66
2021/04/01 12:39:44;;;;;;;;;;;;;;;;;;5042434;28;19972;-65
2021/04/01 12:42:12;;;;;;;;;;;;;;;;;;5040495;28;19933;-66
2021/04/01 12:44:39;;;;;;;;;;;;;;;;;;5039964;28;20021;-66
2021/04/01 12:47:05;;;;;;;;;;;;;;;;;;5045985;28;19944;-65
2021/04/01 12:49:32;;;;;;;;;;;;;;;;;;5042804;28;20027;-66
2021/04/01 12:52:01;;;;;;;;;;;;;;;;;;5046974;28;19964;-66
2021/04/01 12:54:28;;;;;;;;;;;;;;;;;;5047402;28;20019;-66
2021/04/01 12:56:57;;;;;;;;;;;;;;;;;;5045576;28;20395;-67
2021/04/01 12:59:24;;;;;;;;;;;;;;;;;;5046576;28;19948;-66
2021/04/01 13:01:53;;;;;;;;;;;;;;;;;;5043797;28;19925;-65
2021/04/01 13:04:20;;;;;;;;;;;;;;;;;;5049198;28;19929;-65
2021/04/01 13:06:56;;;;;;;;;;;;;;;;;;5045947;28;19925;-65
2021/04/01 13:09:34;;;;;;;;;;;;;;;;;;5041231;28;19925;-64
2021/04/01 13:12:00;;;;;;;;;;;;;;;;;;5044729;28;20416;-65
2021/04/01 13:14:27;;;;;;;;;;;;;;;;;;5042344;28;20024;-65
2021/04/01 13:16:53;;;;;;;;;;;;;;;;;;5043403;28;19928;-66
2021/04/01 13:19:21;;;;;;;;;;;;;;;;;;5039218;28;21441;-67
2021/04/01 13:22:06;;;;;;;;;;;;;;;;;;5044272;28;20011;-67
2021/04/01 13:24:38;;;;;;;;;;;;;;;;;;5048055;28;19925;-65
2021/04/01 13:27:05;;;;;;;;;;;;;;;;;;5045174;28;20369;-64
2021/04/01 13:29:34;;;;;;;;;;;;;;;;;;5044245;28;20012;-65
2021/04/01 13:32:03;;;;;;;;;;;;;;;;;;5051103;28;19933;-65
2021/04/01 13:34:32;;;;;;;;;;;;;;;;;;5053961;28;19929;-64
2021/04/01 13:37:03;;;;;;;;;;;;;;;;;;5048879;28;19932;-67
2021/04/01 13:39:32;;;;;;;;;;;;;;;;;;5050390;28;19979;-66
2021/04/01 13:42:11;;;;;;;;;;;;;;;;;;5046459;28;19924;-68
2021/04/01 13:44:41;;;;;;;;;;;;;;;;;;5042795;28;19936;-67
2021/04/01 13:47:07;;;;;;;;;;;;;;;;;;5044361;28;19929;-67
2021/04/01 13:49:34;;;;;;;;;;;;;;;;;;5043822;28;20399;-66
2021/04/01 13:52:09;;;;;;;;;;;;;;;;;;5047163;28;20095;-66
2021/04/01 13:54:47;;;;;;;;;;;;;;;;;;5046910;28;19967;-65
2021/04/01 13:57:21;;;;;;;;;;;;;;;;;;5043118;28;20385;-66
2021/04/01 14:00:01;;;;;;;;;;;;;;;;;;5044497;28;19936;-68
2021/04/01 14:10:41;;;;;;;;;;;;;;;;;;5041966;28;20008;-68
2021/04/01 14:13:08;;;;;;;;;;;;;;;;;;5045698;28;20403;-65
2021/04/01 14:15:34;;;;;;;;;;;;;;;;;;5042014;28;20012;-68
2021/04/01 14:18:01;;;;;;;;;;;;;;;;;;5042416;28;19967;-67
2021/04/01 14:20:27;;;;;;;;;;;;;;;;;;5041973;28;20347;-66
2021/04/01 14:22:54;;;;;;;;;;;;;;;;;;5042638;28;19932;-66
2021/04/01 14:25:31;;;;;;;;;;;;;;;;;;5047198;28;19925;-65
2021/04/01 14:28:07;;;;;;;;;;;;;;;;;;5044177;28;20266;-65
2021/04/01 14:30:35;;;;;;;;;;;;;;;;;;5042349;28;19928;-66
2021/04/01 14:33:01;;;;;;;;;;;;;;;;;;5045263;28;19931;-67
2021/04/01 14:35:28;;;;;;;;;;;;;;;;;;5046028;28;19947;-67
2021/04/01 14:37:59;;;;;;;;;;;;;;;;;;5045936;28;19925;-67
2021/04/01 14:40:27;;;;;;;;;;;;;;;;;;5043766;28;19928;-66
2021/04/01 14:42:55;;;;;;;;;;;;;;;;;;5043875;28;19932;-65
2021/04/01 14:45:22;;;;;;;;;;;;;;;;;;5046489;28;19924;-65
2021/04/01 14:47:48;;;;;;;;;;;;;;;;;;5049372;28;19924;-67
2021/04/01 14:50:16;;;;;;;;;;;;;;;;;;5049991;28;20393;-67
2021/04/01 14:52:43;;;;;;;;;;;;;;;;;;5049702;28;19987;-70
2021/04/01 14:55:10;;;;;;;;;;;;;;;;;;5050751;28;19979;-66
2021/04/01 14:57:36;;;;;;;;;;;;;;;;;;5046666;28;20038;-67
2021/04/01 15:00:03;;;;;;;;;;;;;;;;;;5050719;28;19925;-67
2021/04/01 15:02:29;;;;;;;;;;;;;;;;;;5050336;28;19932;-65
2021/04/01 15:04:56;;;;;;;;;;;;;;;;;;5050706;28;19924;-66
2021/04/01 15:07:22;;;;;;;;;;;;;;;;;;5050239;28;19932;-67
2021/04/01 15:09:49;;;;;;;;;;;;;;;;;;5046483;28;19959;-65
2021/04/01 15:12:15;;;;;;;;;;;;;;;;;;5052464;28;20086;-64
2021/04/01 15:14:42;;;;;;;;;;;;;;;;;;5052031;28;19967;-65
2021/04/01 15:17:09;;;;;;;;;;;;;;;;;;5052839;28;19935;-65
2021/04/01 15:19:35;;;;;;;;;;;;;;;;;;5051099;28;19925;-66
2021/04/01 15:22:02;;;;;;;;;;;;;;;;;;5057490;28;19925;-66
2021/04/01 15:24:28;;;;;;;;;;;;;;;;;;5054492;28;19931;-64
2021/04/01 15:26:55;;;;;;;;;;;;;;;;;;5055580;28;19933;-64
2021/04/01 15:29:21;;;;;;;;;;;;;;;;;;5060586;28;19967;-66
2021/04/01 15:31:47;;;;;;;;;;;;;;;;;;5055677;28;19931;-65
2021/04/01 15:34:14;;;;;;;;;;;;;;;;;;5046235;28;19970;-63
2021/04/01 15:36:41;;;;;;;;;;;;;;;;;;5053840;28;19925;-64
2021/04/01 15:39:07;;;;;;;;;;;;;;;;;;5064652;28;19932;-64
2021/04/01 15:41:34;;;;;;;;;;;;;;;;;;5064912;28;19972;-63
2021/04/01 15:44:00;;;;;;;;;;;;;;;;;;5060962;28;19992;-65
2021/04/01 15:46:27;;;;;;;;;;;;;;;;;;5056112;28;19924;-65
2021/04/01 15:48:53;;;;;;;;;;;;;;;;;;5045132;28;20011;-65
2021/04/01 15:51:20;;;;;;;;;;;;;;;;;;5050308;28;19924;-65
2021/04/01 15:53:47;;;;;;;;;;;;;;;;;;5048900;28;20441;-65
2021/04/01 15:56:13;;;;;;;;;;;;;;;;;;5045180;28;20050;-66
2021/04/01 15:58:40;;;;;;;;;;;;;;;;;;5049855;28;20011;-65
2021/04/01 16:01:08;;;;;;;;;;;;;;;;;;5048655;28;20012;-67
2021/04/01 16:03:35;;;;;;;;;;;;;;;;;;5049381;28;19924;-66
2021/04/01 16:06:01;;;;;;;;;;;;;;;;;;5065852;22;19939;-67
2021/04/01 16:08:28;;;;;;;;;;;;;;;;;;5060874;28;19981;-66
2021/04/01 16:10:54;;;;;;;;;;;;;;;;;;5063336;28;20480;-66
2021/04/01 16:13:21;;;;;;;;;;;;;;;;;;5064456;28;19924;-67
2021/04/01 16:15:47;;;;;;;;;;;;;;;;;;5066752;28;19964;-67
2021/04/01 16:18:14;;;;;;;;;;;;;;;;;;5059683;28;20423;-67
2021/04/01 16:20:40;;;;;;;;;;;;;;;;;;5055834;28;20019;-66
2021/04/01 16:23:07;;;;;;;;;;;;;;;;;;5056048;28;19933;-67
2021/04/01 16:25:33;;;;;;;;;;;;;;;;;;5053193;28;20012;-66
2021/04/01 16:28:00;;;;;;;;;;;;;;;;;;5056742;28;20401;-66
2021/04/01 16:30:26;;;;;;;;;;;;;;;;;;5058160;28;19971;-66
2021/04/01 16:32:53;;;;;;;;;;;;;;;;;;5056959;28;19929;-66
2021/04/01 16:35:19;;;;;;;;;;;;;;;;;;5054964;28;19939;-67
2021/04/01 16:37:46;;;;;;;;;;;;;;;;;;5056935;28;19929;-66
2021/04/01 16:40:12;;;;;;;;;;;;;;;;;;5054528;28;20408;-67
2021/04/01 16:42:39;;;;;;;;;;;;;;;;;;5054999;28;20416;-68
2021/04/01 16:45:05;;;;;;;;;;;;;;;;;;5055265;28;19979;-68
2021/04/01 16:47:32;;;;;;;;;;;;;;;;;;5054705;28;19931;-66
2021/04/01 16:49:58;;;;;;;;;;;;;;;;;;5051267;28;20376;-67
2021/04/01 16:52:25;;;;;;;;;;;;;;;;;;5055371;28;19932;-67
2021/04/01 16:54:51;;;;;;;;;;;;;;;;;;5059297;28;19928;-66
2021/04/01 16:57:18;;;;;;;;;;;;;;;;;;5056124;28;19959;-67
2021/04/01 16:59:44;;;;;;;;;;;;;;;;;;5057266;28;19925;-68
2021/04/01 17:02:11;;;;;;;;;;;;;;;;;;5052705;28;19932;-67
2021/04/01 17:04:38;;;;;;;;;;;;;;;;;;5054923;28;19932;-63
2021/04/01 17:07:04;;;;;;;;;;;;;;;;;;5052163;28;19975;-63
2021/04/01 17:09:31;;;;;;;;;;;;;;;;;;5053322;28;19978;-63
2021/04/01 17:11:57;;;;;;;;;;;;;;;;;;5055136;28;19933;-64
2021/04/01 17:14:24;;;;;;;;;;;;;;;;;;5057895;28;19924;-63
2021/04/01 17:16:51;;;;;;;;;;;;;;;;;;5056444;28;20011;-64
2021/04/01 17:19:17;;;;;;;;;;;;;;;;;;5053788;28;20007;-65
2021/04/01 17:21:43;;;;;;;;;;;;;;;;;;5051839;28;19979;-65
2021/04/01 17:24:10;;;;;;;;;;;;;;;;;;5056846;28;20624;-64
2021/04/01 17:26:38;;;;;;;;;;;;;;;;;;5052402;28;19925;-65
2021/04/01 17:29:05;;;;;;;;;;;;;;;;;;5053233;28;19935;-65